Time,TemperatureF,DewpointF,PressureIn,WindDirection,WindDirectionDegrees,WindSpeedMPH,WindSpeedGustMPH,Humidity,HourlyPrecipIn,Conditions,Clouds,dailyrainin,SoftwareType,DateUTC
2013-08-05 00:11:00,62.5,61.0,30.21,East,87,0.0,0.0,93,0.00,,,0.00,weatherlink.com 1.10,2013-08-05 04:11:00,
2013-08-05 00:26:00,62.0,60.0,30.22,East,86,0.0,0.0,94,0.00,,,0.00,weatherlink.com 1.10,2013-08-05 04:26:00,
2013-08-05 00:41:00,61.7,60.0,30.22,NW,326,0.0,0.0,93,0.00,,,0.00,weatherlink.com 1.10,2013-08-05 04:41:00,
2013-08-05 00:56:00,61.4,60.0,30.22,NW,326,0.0,0.0,94,0.00,,,0.00,weatherlink.com 1.10,2013-08-05 04:56:00,
2013-08-05 01:12:00,61.1,59.0,30.21,NW,326,0.0,0.0,94,0.00,,,0.00,weatherlink.com 1.10,2013-08-05 05:12:00,
2013-08-05 01:42:00,60.8,59.0,30.21,NW,326,0.0,0.0,95,0.00,,,0.00,weatherlink.com 1.10,2013-08-05 05:42:00,
2013-08-05 01:57:00,60.8,60.0,30.21,NW,326,0.0,0.0,96,0.00,,,0.00,weatherlink.com 1.10,2013-08-05 05:57:00,
2013-08-05 02:12:00,60.7,60.0,30.21,NW,326,0.0,0.0,96,0.00,,,0.00,weatherlink.com 1.10,2013-08-05 06:12:00,
2013-08-05 02:27:00,60.6,59.0,30.21,NW,326,0.0,0.0,95,0.00,,,0.00,weatherlink.com 1.10,2013-08-05 06:27:00,
2013-08-05 02:42:00,60.7,60.0,30.21,NW,326,0.0,0.0,96,0.00,,,0.00,weatherlink.com 1.10,2013-08-05 06:42:00,
2013-08-05 02:57:00,60.9,60.0,30.20,NW,326,0.0,0.0,96,0.00,,,0.00,weatherlink.com 1.10,2013-08-05 06:57:00,
2013-08-05 03:12:00,61.1,60.0,30.20,NW,326,0.0,0.0,96,0.00,,,0.00,weatherlink.com 1.10,2013-08-05 07:12:00,
2013-08-05 03:26:00,61.0,60.0,30.20,NW,326,0.0,0.0,95,0.00,,,0.00,weatherlink.com 1.10,2013-08-05 07:26:00,
2013-08-05 03:42:00,61.1,60.0,30.19,NW,326,0.0,0.0,96,0.00,,,0.00,weatherlink.com 1.10,2013-08-05 07:42:00,
2013-08-05 03:57:00,61.0,60.0,30.19,NW,326,0.0,0.0,96,0.00,,,0.00,weatherlink.com 1.10,2013-08-05 07:57:00,
2013-08-05 04:12:00,60.9,60.0,30.19,NW,326,0.0,0.0,96,0.00,,,0.00,weatherlink.com 1.10,2013-08-05 08:12:00,
2013-08-05 04:27:00,60.9,60.0,30.20,NW,326,0.0,0.0,96,0.00,,,0.00,weatherlink.com 1.10,2013-08-05 08:27:00,
2013-08-05 04:42:00,61.2,60.0,30.20,NW,326,0.0,0.0,97,0.00,,,0.00,weatherlink.com 1.10,2013-08-05 08:42:00,
2013-08-05 04:57:00,61.3,60.0,30.20,NW,326,0.0,0.0,96,0.00,,,0.00,weatherlink.com 1.10,2013-08-05 08:57:00,
2013-08-05 05:12:00,61.3,60.0,30.20,NW,326,0.0,0.0,96,0.00,,,0.00,weatherlink.com 1.10,2013-08-05 09:12:00,
2013-08-05 05:57:00,60.7,60.0,30.20,NW,326,0.0,0.0,97,0.00,,,0.00,weatherlink.com 1.10,2013-08-05 09:57:00,
2013-08-05 06:11:00,60.6,60.0,30.20,NW,326,0.0,0.0,97,0.00,,,0.00,weatherlink.com 1.10,2013-08-05 10:11:00,
2013-08-05 06:26:00,60.6,60.0,30.20,NW,326,0.0,0.0,97,0.00,,,0.00,weatherlink.com 1.10,2013-08-05 10:26:00,
2013-08-05 06:42:00,61.1,60.0,30.21,NW,326,0.0,0.0,97,0.00,,,0.00,weatherlink.com 1.10,2013-08-05 10:42:00,
2013-08-05 06:57:00,61.2,60.0,30.21,NW,326,0.0,0.0,97,0.00,,,0.00,weatherlink.com 1.10,2013-08-05 10:57:00,
2013-08-05 07:42:00,62.2,61.0,30.22,NW,326,0.0,0.0,96,0.00,,,0.00,weatherlink.com 1.10,2013-08-05 11:42:00,
2013-08-05 07:57:00,62.7,62.0,30.23,NW,326,0.0,0.0,96,0.00,,,0.00,weatherlink.com 1.10,2013-08-05 11:57:00,
2013-08-05 08:12:00,63.8,62.0,30.23,NW,326,0.0,0.0,94,0.00,,,0.00,weatherlink.com 1.10,2013-08-05 12:12:00,
2013-08-05 08:42:00,64.8,62.0,30.23,ESE,118,0.0,1.0,91,0.00,,,0.00,weatherlink.com 1.10,2013-08-05 12:42:00,
2013-08-05 08:57:00,65.6,62.0,30.24,ESE,111,0.0,3.0,89,0.00,,,0.00,weatherlink.com 1.10,2013-08-05 12:57:00,
2013-08-05 09:27:00,70.3,65.0,30.23,SE,135,0.0,1.0,83,0.00,,,0.00,weatherlink.com 1.10,2013-08-05 13:27:00,
2013-08-05 09:42:00,70.4,64.0,30.23,ESE,120,0.0,1.0,81,0.00,,,0.00,weatherlink.com 1.10,2013-08-05 13:42:00,
2013-08-05 09:57:00,73.6,64.0,30.23,WNW,297,0.0,2.0,73,0.00,,,0.00,weatherlink.com 1.10,2013-08-05 13:57:00,
2013-08-05 10:12:00,74.7,65.0,30.23,NNE,16,0.0,1.0,72,0.00,,,0.00,weatherlink.com 1.10,2013-08-05 14:12:00,
2013-08-05 10:42:00,75.3,64.0,30.23,East,99,0.0,2.0,67,0.00,,,0.00,weatherlink.com 1.10,2013-08-05 14:42:00,
2013-08-05 10:57:00,75.8,65.0,30.23,WNW,300,0.0,2.0,69,0.00,,,0.00,weatherlink.com 1.10,2013-08-05 14:57:00,
2013-08-05 11:12:00,75.7,66.0,30.23,NE,44,0.0,2.0,73,0.00,,,0.00,weatherlink.com 1.10,2013-08-05 15:12:00,
2013-08-05 11:28:00,77.5,65.0,30.22,East,98,0.0,2.0,66,0.00,,,0.00,weatherlink.com 1.10,2013-08-05 15:28:00,
2013-08-05 11:43:00,79.2,66.0,30.22,SE,127,2.0,3.0,64,0.00,,,0.00,weatherlink.com 1.10,2013-08-05 15:43:00,
2013-08-05 11:57:00,80.7,66.0,30.22,WSW,245,0.0,3.0,62,0.00,,,0.00,weatherlink.com 1.10,2013-08-05 15:57:00,
2013-08-05 12:28:00,81.6,67.0,30.20,SSE,156,4.0,6.0,61,0.00,,,0.00,weatherlink.com 1.10,2013-08-05 16:28:00,
2013-08-05 12:42:00,81.6,68.0,30.20,WNW,300,2.0,5.0,63,0.00,,,0.00,weatherlink.com 1.10,2013-08-05 16:42:00,
2013-08-05 12:58:00,80.9,67.0,30.20,SW,228,2.0,4.0,63,0.00,,,0.00,weatherlink.com 1.10,2013-08-05 16:58:00,
2013-08-05 13:13:00,80.8,67.0,30.19,WNW,293,1.0,8.0,64,0.00,,,0.00,weatherlink.com 1.10,2013-08-05 17:13:00,
2013-08-05 13:27:00,80.1,68.0,30.18,ENE,70,1.0,7.0,67,0.00,,,0.00,weatherlink.com 1.10,2013-08-05 17:27:00,
2013-08-05 13:43:00,79.2,66.0,30.18,WNW,284,4.0,7.0,65,0.00,,,0.00,weatherlink.com 1.10,2013-08-05 17:43:00,
2013-08-05 14:13:00,80.3,67.0,30.17,WNW,287,2.0,5.0,65,0.00,,,0.00,weatherlink.com 1.10,2013-08-05 18:13:00,
2013-08-05 14:28:00,80.6,69.0,30.17,West,259,3.0,6.0,67,0.00,,,0.00,weatherlink.com 1.10,2013-08-05 18:28:00,
2013-08-05 14:43:00,81.7,67.0,30.17,West,264,2.0,12.0,61,0.00,,,0.00,weatherlink.com 1.10,2013-08-05 18:43:00,
2013-08-05 14:58:00,81.1,68.0,30.17,West,265,1.0,7.0,64,0.00,,,0.00,weatherlink.com 1.10,2013-08-05 18:58:00,
2013-08-05 15:13:00,80.5,67.0,30.17,NNW,330,2.0,4.0,63,0.00,,,0.00,weatherlink.com 1.10,2013-08-05 19:13:00,
2013-08-05 15:43:00,81.4,68.0,30.16,WNW,291,1.0,7.0,63,0.00,,,0.00,weatherlink.com 1.10,2013-08-05 19:43:00,
2013-08-05 15:58:00,81.3,68.0,30.16,WSW,257,5.0,6.0,64,0.00,,,0.00,weatherlink.com 1.10,2013-08-05 19:58:00,
2013-08-05 16:13:00,80.3,67.0,30.15,WNW,290,0.0,5.0,63,0.00,,,0.00,weatherlink.com 1.10,2013-08-05 20:13:00,
2013-08-05 16:28:00,80.1,67.0,30.15,East,82,1.0,5.0,64,0.00,,,0.00,weatherlink.com 1.10,2013-08-05 20:28:00,
2013-08-05 16:43:00,79.5,67.0,30.15,SE,146,0.0,3.0,65,0.00,,,0.00,weatherlink.com 1.10,2013-08-05 20:43:00,
2013-08-05 16:58:00,79.9,66.0,30.14,SSE,166,0.0,6.0,63,0.00,,,0.00,weatherlink.com 1.10,2013-08-05 20:58:00,
2013-08-05 17:13:00,79.7,67.0,30.14,WNW,292,0.0,4.0,65,0.00,,,0.00,weatherlink.com 1.10,2013-08-05 21:13:00,
2013-08-05 17:28:00,79.9,67.0,30.14,WSW,249,2.0,5.0,64,0.00,,,0.00,weatherlink.com 1.10,2013-08-05 21:28:00,
2013-08-05 17:58:00,79.5,67.0,30.14,NW,305,0.0,6.0,65,0.00,,,0.00,weatherlink.com 1.10,2013-08-05 21:58:00,
2013-08-05 18:13:00,78.5,67.0,30.14,West,261,1.0,4.0,67,0.00,,,0.00,weatherlink.com 1.10,2013-08-05 22:13:00,
2013-08-05 18:28:00,77.5,67.0,30.14,West,267,1.0,3.0,70,0.00,,,0.00,weatherlink.com 1.10,2013-08-05 22:28:00,
2013-08-05 18:43:00,76.1,68.0,30.14,SW,221,0.0,4.0,75,0.00,,,0.00,weatherlink.com 1.10,2013-08-05 22:43:00,
2013-08-05 18:58:00,75.4,68.0,30.14,WSW,250,0.0,1.0,78,0.00,,,0.00,weatherlink.com 1.10,2013-08-05 22:58:00,
2013-08-05 19:13:00,75.5,69.0,30.14,WSW,243,0.0,1.0,79,0.00,,,0.00,weatherlink.com 1.10,2013-08-05 23:13:00,
2013-08-05 19:28:00,75.8,69.0,30.14,West,267,0.0,2.0,78,0.00,,,0.00,weatherlink.com 1.10,2013-08-05 23:28:00,
2013-08-05 19:43:00,75.7,69.0,30.15,WNW,284,0.0,1.0,79,0.00,,,0.00,weatherlink.com 1.10,2013-08-05 23:43:00,
2013-08-05 20:13:00,74.5,69.0,30.15,WSW,242,0.0,1.0,84,0.00,,,0.00,weatherlink.com 1.10,2013-08-06 00:13:00,
2013-08-05 20:28:00,73.8,69.0,30.15,WSW,256,0.0,1.0,85,0.00,,,0.00,weatherlink.com 1.10,2013-08-06 00:28:00,
2013-08-05 20:43:00,72.5,69.0,30.15,WSW,256,0.0,0.0,88,0.00,,,0.00,weatherlink.com 1.10,2013-08-06 00:43:00,
2013-08-05 20:58:00,71.4,69.0,30.16,WSW,256,0.0,1.0,91,0.00,,,0.00,weatherlink.com 1.10,2013-08-06 00:58:00,
2013-08-05 21:28:00,70.8,69.0,30.16,WSW,256,0.0,0.0,93,0.00,,,0.00,weatherlink.com 1.10,2013-08-06 01:28:00,
2013-08-05 21:43:00,70.6,69.0,30.16,WSW,256,0.0,0.0,94,0.00,,,0.00,weatherlink.com 1.10,2013-08-06 01:43:00,
2013-08-05 22:13:00,70.7,69.0,30.15,WSW,256,0.0,0.0,93,0.00,,,0.00,weatherlink.com 1.10,2013-08-06 02:13:00,
2013-08-05 22:43:00,70.0,69.0,30.16,WSW,257,0.0,0.0,95,0.00,,,0.00,weatherlink.com 1.10,2013-08-06 02:43:00,
2013-08-05 22:58:00,70.2,69.0,30.16,WSW,256,0.0,0.0,95,0.00,,,0.00,weatherlink.com 1.10,2013-08-06 02:58:00,
2013-08-05 23:13:00,70.5,69.0,30.16,WSW,256,0.0,0.0,95,0.00,,,0.00,weatherlink.com 1.10,2013-08-06 03:13:00,
2013-08-05 23:28:00,70.8,69.0,30.16,WSW,249,0.0,0.0,94,0.00,,,0.00,weatherlink.com 1.10,2013-08-06 03:28:00,
2013-08-05 23:43:00,70.3,69.0,30.16,WSW,249,0.0,0.0,95,0.00,,,0.00,weatherlink.com 1.10,2013-08-06 03:43:00,